sensor_id;sensor_type;location;lat;lon;timestamp;P1;durP1;ratioP1;P2;durP2;ratioP2
31378;SDS011;61664;48.112;11.662;2023-04-24T00:01:55;0.30;;;0.30;;
31378;SDS011;61664;48.112;11.662;2023-04-24T00:04:24;0.38;;;0.30;;
31378;SDS011;61664;48.112;11.662;2023-04-24T00:06:52;0.60;;;0.52;;
31378;SDS011;61664;48.112;11.662;2023-04-24T00:09:23;0.50;;;0.50;;
31378;SDS011;61664;48.112;11.662;2023-04-24T00:11:50;0.65;;;0.30;;
31378;SDS011;61664;48.112;11.662;2023-04-24T00:14:18;0.40;;;0.40;;
31378;SDS011;61664;48.112;11.662;2023-04-24T00:16:45;1.02;;;0.88;;
31378;SDS011;61664;48.112;11.662;2023-04-24T00:19:12;0.30;;;0.30;;
31378;SDS011;61664;48.112;11.662;2023-04-24T00:21:39;0.50;;;0.50;;
31378;SDS011;61664;48.112;11.662;2023-04-24T00:24:07;0.20;;;0.20;;
31378;SDS011;61664;48.112;11.662;2023-04-24T00:26:37;0.63;;;0.43;;
31378;SDS011;61664;48.112;11.662;2023-04-24T00:29:04;0.30;;;0.30;;
31378;SDS011;61664;48.112;11.662;2023-04-24T00:31:31;0.60;;;0.50;;
31378;SDS011;61664;48.112;11.662;2023-04-24T00:34:01;0.40;;;0.40;;
31378;SDS011;61664;48.112;11.662;2023-04-24T00:36:29;0.50;;;0.50;;
31378;SDS011;61664;48.112;11.662;2023-04-24T00:38:56;0.70;;;0.50;;
31378;SDS011;61664;48.112;11.662;2023-04-24T00:41:27;0.43;;;0.40;;
31378;SDS011;61664;48.112;11.662;2023-04-24T00:43:54;0.40;;;0.30;;
31378;SDS011;61664;48.112;11.662;2023-04-24T00:46:20;0.30;;;0.30;;
31378;SDS011;61664;48.112;11.662;2023-04-24T00:48:48;1.70;;;0.40;;
31378;SDS011;61664;48.112;11.662;2023-04-24T00:51:15;0.30;;;0.30;;
31378;SDS011;61664;48.112;11.662;2023-04-24T00:53:42;0.20;;;0.20;;
31378;SDS011;61664;48.112;11.662;2023-04-24T00:56:09;0.30;;;0.30;;
31378;SDS011;61664;48.112;11.662;2023-04-24T00:58:36;0.20;;;0.20;;
31378;SDS011;61664;48.112;11.662;2023-04-24T01:01:04;0.45;;;0.22;;
31378;SDS011;61664;48.112;11.662;2023-04-24T01:03:33;0.40;;;0.40;;
31378;SDS011;61664;48.112;11.662;2023-04-24T01:06:03;1.40;;;0.38;;
31378;SDS011;61664;48.112;11.662;2023-04-24T01:08:31;0.38;;;0.38;;
31378;SDS011;61664;48.112;11.662;2023-04-24T01:11:02;1.70;;;0.30;;
31378;SDS011;61664;48.112;11.662;2023-04-24T01:13:31;0.22;;;0.22;;
31378;SDS011;61664;48.112;11.662;2023-04-24T01:15:59;0.43;;;0.22;;
31378;SDS011;61664;48.112;11.662;2023-04-24T01:18:27;0.20;;;0.20;;
31378;SDS011;61664;48.112;11.662;2023-04-24T01:20:57;0.30;;;0.30;;
31378;SDS011;61664;48.112;11.662;2023-04-24T01:23:26;0.30;;;0.30;;
31378;SDS011;61664;48.112;11.662;2023-04-24T01:25:53;0.20;;;0.20;;
31378;SDS011;61664;48.112;11.662;2023-04-24T01:28:20;0.20;;;0.20;;
31378;SDS011;61664;48.112;11.662;2023-04-24T01:30:48;0.20;;;0.20;;
31378;SDS011;61664;48.112;11.662;2023-04-24T01:33:15;0.30;;;0.30;;
31378;SDS011;61664;48.112;11.662;2023-04-24T01:35:42;0.20;;;0.20;;
31378;SDS011;61664;48.112;11.662;2023-04-24T01:38:09;0.45;;;0.30;;
31378;SDS011;61664;48.112;11.662;2023-04-24T01:40:37;0.95;;;0.30;;
31378;SDS011;61664;48.112;11.662;2023-04-24T01:43:04;1.05;;;0.30;;
31378;SDS011;61664;48.112;11.662;2023-04-24T01:45:31;0.22;;;0.22;;
31378;SDS011;61664;48.112;11.662;2023-04-24T01:47:58;0.20;;;0.20;;
31378;SDS011;61664;48.112;11.662;2023-04-24T01:50:27;0.20;;;0.20;;
31378;SDS011;61664;48.112;11.662;2023-04-24T01:52:54;0.98;;;0.20;;
31378;SDS011;61664;48.112;11.662;2023-04-24T01:55:21;0.10;;;0.10;;
31378;SDS011;61664;48.112;11.662;2023-04-24T01:57:48;0.22;;;0.20;;
31378;SDS011;61664;48.112;11.662;2023-04-24T02:00:16;0.30;;;0.30;;
31378;SDS011;61664;48.112;11.662;2023-04-24T02:02:43;0.30;;;0.20;;
31378;SDS011;61664;48.112;11.662;2023-04-24T02:05:13;1.08;;;0.20;;
31378;SDS011;61664;48.112;11.662;2023-04-24T02:07:41;0.63;;;0.22;;
31378;SDS011;61664;48.112;11.662;2023-04-24T02:10:08;0.20;;;0.20;;
31378;SDS011;61664;48.112;11.662;2023-04-24T02:12:36;0.10;;;0.10;;
31378;SDS011;61664;48.112;11.662;2023-04-24T02:15:03;0.22;;;0.20;;
31378;SDS011;61664;48.112;11.662;2023-04-24T02:17:30;2.38;;;0.28;;
31378;SDS011;61664;48.112;11.662;2023-04-24T02:19:57;0.35;;;0.20;;
31378;SDS011;61664;48.112;11.662;2023-04-24T02:22:24;1.05;;;0.60;;
31378;SDS011;61664;48.112;11.662;2023-04-24T02:24:51;1.13;;;0.20;;
31378;SDS011;61664;48.112;11.662;2023-04-24T02:27:18;0.15;;;0.15;;
31378;SDS011;61664;48.112;11.662;2023-04-24T02:29:44;0.30;;;0.20;;
31378;SDS011;61664;48.112;11.662;2023-04-24T02:32:11;0.30;;;0.30;;
31378;SDS011;61664;48.112;11.662;2023-04-24T02:34:39;0.22;;;0.10;;
31378;SDS011;61664;48.112;11.662;2023-04-24T02:37:06;0.28;;;0.20;;
31378;SDS011;61664;48.112;11.662;2023-04-24T02:39:33;0.82;;;0.35;;
31378;SDS011;61664;48.112;11.662;2023-04-24T02:41:59;0.10;;;0.10;;
31378;SDS011;61664;48.112;11.662;2023-04-24T02:44:27;0.20;;;0.20;;
31378;SDS011;61664;48.112;11.662;2023-04-24T02:46:54;0.10;;;0.10;;
31378;SDS011;61664;48.112;11.662;2023-04-24T02:49:21;0.13;;;0.13;;
31378;SDS011;61664;48.112;11.662;2023-04-24T02:51:48;0.52;;;0.20;;
31378;SDS011;61664;48.112;11.662;2023-04-24T02:54:15;0.90;;;0.38;;
31378;SDS011;61664;48.112;11.662;2023-04-24T02:56:41;0.20;;;0.20;;
31378;SDS011;61664;48.112;11.662;2023-04-24T02:59:08;0.15;;;0.15;;
31378;SDS011;61664;48.112;11.662;2023-04-24T03:01:36;0.10;;;0.10;;
31378;SDS011;61664;48.112;11.662;2023-04-24T03:04:03;0.75;;;0.20;;
31378;SDS011;61664;48.112;11.662;2023-04-24T03:06:30;0.22;;;0.20;;
31378;SDS011;61664;48.112;11.662;2023-04-24T03:08:59;0.20;;;0.20;;
31378;SDS011;61664;48.112;11.662;2023-04-24T03:11:25;0.10;;;0.10;;
31378;SDS011;61664;48.112;11.662;2023-04-24T03:13:52;0.20;;;0.20;;
31378;SDS011;61664;48.112;11.662;2023-04-24T03:16:19;1.00;;;0.20;;
31378;SDS011;61664;48.112;11.662;2023-04-24T03:18:46;0.45;;;0.43;;
31378;SDS011;61664;48.112;11.662;2023-04-24T03:21:13;0.25;;;0.25;;
31378;SDS011;61664;48.112;11.662;2023-04-24T03:23:40;0.32;;;0.20;;
31378;SDS011;61664;48.112;11.662;2023-04-24T03:26:07;0.75;;;0.20;;
31378;SDS011;61664;48.112;11.662;2023-04-24T03:28:33;0.20;;;0.20;;
31378;SDS011;61664;48.112;11.662;2023-04-24T03:31:00;0.15;;;0.10;;
31378;SDS011;61664;48.112;11.662;2023-04-24T03:33:29;1.08;;;0.10;;
31378;SDS011;61664;48.112;11.662;2023-04-24T03:35:56;0.20;;;0.20;;
31378;SDS011;61664;48.112;11.662;2023-04-24T03:38:23;0.10;;;0.10;;
31378;SDS011;61664;48.112;11.662;2023-04-24T03:40:50;0.57;;;0.20;;
31378;SDS011;61664;48.112;11.662;2023-04-24T03:43:16;2.55;;;0.10;;
31378;SDS011;61664;48.112;11.662;2023-04-24T03:45:43;0.30;;;0.20;;
31378;SDS011;61664;48.112;11.662;2023-04-24T03:48:10;0.20;;;0.20;;
31378;SDS011;61664;48.112;11.662;2023-04-24T03:50:37;0.15;;;0.10;;
31378;SDS011;61664;48.112;11.662;2023-04-24T03:53:04;0.70;;;0.17;;
31378;SDS011;61664;48.112;11.662;2023-04-24T03:55:31;0.22;;;0.20;;
31378;SDS011;61664;48.112;11.662;2023-04-24T03:57:58;0.30;;;0.30;;
31378;SDS011;61664;48.112;11.662;2023-04-24T04:00:25;0.30;;;0.30;;
31378;SDS011;61664;48.112;11.662;2023-04-24T04:02:52;0.22;;;0.20;;
31378;SDS011;61664;48.112;11.662;2023-04-24T04:05:19;0.30;;;0.30;;
31378;SDS011;61664;48.112;11.662;2023-04-24T04:07:46;0.20;;;0.20;;
31378;SDS011;61664;48.112;11.662;2023-04-24T04:10:13;1.38;;;0.20;;
31378;SDS011;61664;48.112;11.662;2023-04-24T04:12:40;0.25;;;0.17;;
31378;SDS011;61664;48.112;11.662;2023-04-24T04:15:07;0.38;;;0.20;;
31378;SDS011;61664;48.112;11.662;2023-04-24T04:17:34;2.35;;;0.60;;
31378;SDS011;61664;48.112;11.662;2023-04-24T04:20:01;0.38;;;0.30;;
31378;SDS011;61664;48.112;11.662;2023-04-24T04:22:33;0.85;;;0.20;;
31378;SDS011;61664;48.112;11.662;2023-04-24T04:25:00;0.10;;;0.10;;
31378;SDS011;61664;48.112;11.662;2023-04-24T04:27:26;0.30;;;0.30;;
31378;SDS011;61664;48.112;11.662;2023-04-24T04:29:55;0.20;;;0.20;;
31378;SDS011;61664;48.112;11.662;2023-04-24T04:32:22;1.00;;;0.40;;
31378;SDS011;61664;48.112;11.662;2023-04-24T04:34:49;0.35;;;0.20;;
31378;SDS011;61664;48.112;11.662;2023-04-24T04:37:19;0.47;;;0.20;;
31378;SDS011;61664;48.112;11.662;2023-04-24T04:39:46;0.32;;;0.28;;
31378;SDS011;61664;48.112;11.662;2023-04-24T04:42:13;0.13;;;0.13;;
31378;SDS011;61664;48.112;11.662;2023-04-24T04:44:41;0.40;;;0.17;;
31378;SDS011;61664;48.112;11.662;2023-04-24T04:47:08;0.20;;;0.20;;
31378;SDS011;61664;48.112;11.662;2023-04-24T04:49:37;0.47;;;0.35;;
31378;SDS011;61664;48.112;11.662;2023-04-24T04:52:05;0.30;;;0.30;;
31378;SDS011;61664;48.112;11.662;2023-04-24T04:54:32;0.20;;;0.20;;
31378;SDS011;61664;48.112;11.662;2023-04-24T04:56:59;0.30;;;0.10;;
31378;SDS011;61664;48.112;11.662;2023-04-24T04:59:29;0.43;;;0.38;;
31378;SDS011;61664;48.112;11.662;2023-04-24T05:01:56;0.30;;;0.20;;
31378;SDS011;61664;48.112;11.662;2023-04-24T05:04:23;0.55;;;0.40;;
31378;SDS011;61664;48.112;11.662;2023-04-24T05:06:50;0.80;;;0.20;;
31378;SDS011;61664;48.112;11.662;2023-04-24T05:09:17;0.35;;;0.30;;
31378;SDS011;61664;48.112;11.662;2023-04-24T05:11:44;0.30;;;0.30;;
31378;SDS011;61664;48.112;11.662;2023-04-24T05:14:11;0.73;;;0.30;;
31378;SDS011;61664;48.112;11.662;2023-04-24T05:16:41;0.45;;;0.20;;
31378;SDS011;61664;48.112;11.662;2023-04-24T05:19:08;0.10;;;0.10;;
31378;SDS011;61664;48.112;11.662;2023-04-24T05:21:35;0.43;;;0.20;;
31378;SDS011;61664;48.112;11.662;2023-04-24T05:24:02;0.25;;;0.20;;
31378;SDS011;61664;48.112;11.662;2023-04-24T05:26:29;0.40;;;0.28;;
31378;SDS011;61664;48.112;11.662;2023-04-24T05:28:56;1.08;;;0.63;;
31378;SDS011;61664;48.112;11.662;2023-04-24T05:31:23;0.20;;;0.20;;
31378;SDS011;61664;48.112;11.662;2023-04-24T05:33:51;0.28;;;0.28;;
31378;SDS011;61664;48.112;11.662;2023-04-24T05:36:18;1.17;;;0.20;;
31378;SDS011;61664;48.112;11.662;2023-04-24T05:38:45;0.40;;;0.30;;
31378;SDS011;61664;48.112;11.662;2023-04-24T05:41:12;0.40;;;0.20;;
31378;SDS011;61664;48.112;11.662;2023-04-24T05:43:39;0.43;;;0.43;;
31378;SDS011;61664;48.112;11.662;2023-04-24T05:46:06;0.20;;;0.20;;
31378;SDS011;61664;48.112;11.662;2023-04-24T05:48:33;0.25;;;0.20;;
31378;SDS011;61664;48.112;11.662;2023-04-24T05:50:59;0.30;;;0.30;;
31378;SDS011;61664;48.112;11.662;2023-04-24T05:53:26;0.35;;;0.22;;
31378;SDS011;61664;48.112;11.662;2023-04-24T05:55:53;0.30;;;0.10;;
31378;SDS011;61664;48.112;11.662;2023-04-24T05:58:20;1.92;;;0.30;;
31378;SDS011;61664;48.112;11.662;2023-04-24T06:00:47;0.13;;;0.13;;
31378;SDS011;61664;48.112;11.662;2023-04-24T06:03:14;0.52;;;0.20;;
31378;SDS011;61664;48.112;11.662;2023-04-24T06:05:41;1.17;;;0.30;;
31378;SDS011;61664;48.112;11.662;2023-04-24T06:08:08;0.25;;;0.20;;
31378;SDS011;61664;48.112;11.662;2023-04-24T06:10:36;0.13;;;0.13;;
31378;SDS011;61664;48.112;11.662;2023-04-24T06:13:02;1.85;;;0.22;;
31378;SDS011;61664;48.112;11.662;2023-04-24T06:15:30;0.30;;;0.17;;
31378;SDS011;61664;48.112;11.662;2023-04-24T06:17:57;0.15;;;0.15;;
31378;SDS011;61664;48.112;11.662;2023-04-24T06:20:24;0.25;;;0.13;;
31378;SDS011;61664;48.112;11.662;2023-04-24T06:22:51;0.10;;;0.10;;
31378;SDS011;61664;48.112;11.662;2023-04-24T06:25:18;0.25;;;0.20;;
31378;SDS011;61664;48.112;11.662;2023-04-24T06:27:45;0.10;;;0.10;;
31378;SDS011;61664;48.112;11.662;2023-04-24T06:30:13;0.10;;;0.10;;
31378;SDS011;61664;48.112;11.662;2023-04-24T06:32:40;0.15;;;0.15;;
31378;SDS011;61664;48.112;11.662;2023-04-24T06:35:07;2.20;;;0.20;;
31378;SDS011;61664;48.112;11.662;2023-04-24T06:37:35;4.57;;;0.20;;
31378;SDS011;61664;48.112;11.662;2023-04-24T06:40:02;0.22;;;0.10;;
31378;SDS011;61664;48.112;11.662;2023-04-24T06:42:34;1.35;;;0.10;;
31378;SDS011;61664;48.112;11.662;2023-04-24T06:45:01;0.50;;;0.20;;
31378;SDS011;61664;48.112;11.662;2023-04-24T06:47:29;0.30;;;0.30;;
31378;SDS011;61664;48.112;11.662;2023-04-24T06:49:56;0.20;;;0.10;;
31378;SDS011;61664;48.112;11.662;2023-04-24T06:52:23;0.55;;;0.13;;
31378;SDS011;61664;48.112;11.662;2023-04-24T06:54:50;0.10;;;0.10;;
31378;SDS011;61664;48.112;11.662;2023-04-24T06:57:17;0.10;;;0.10;;
31378;SDS011;61664;48.112;11.662;2023-04-24T07:00:06;0.40;;;0.20;;
31378;SDS011;61664;48.112;11.662;2023-04-24T07:02:35;0.10;;;0.10;;
31378;SDS011;61664;48.112;11.662;2023-04-24T07:05:04;0.10;;;0.10;;
31378;SDS011;61664;48.112;11.662;2023-04-24T07:07:31;0.10;;;0.10;;
31378;SDS011;61664;48.112;11.662;2023-04-24T07:09:58;0.13;;;0.13;;
31378;SDS011;61664;48.112;11.662;2023-04-24T07:12:25;0.28;;;0.20;;
31378;SDS011;61664;48.112;11.662;2023-04-24T07:14:52;0.10;;;0.10;;
31378;SDS011;61664;48.112;11.662;2023-04-24T07:17:19;0.10;;;0.10;;
31378;SDS011;61664;48.112;11.662;2023-04-24T07:19:46;0.20;;;0.20;;
31378;SDS011;61664;48.112;11.662;2023-04-24T07:22:12;1.30;;;1.27;;
31378;SDS011;61664;48.112;11.662;2023-04-24T07:24:43;0.30;;;0.30;;
31378;SDS011;61664;48.112;11.662;2023-04-24T07:27:10;1.17;;;0.20;;
31378;SDS011;61664;48.112;11.662;2023-04-24T07:29:38;0.15;;;0.10;;
31378;SDS011;61664;48.112;11.662;2023-04-24T07:32:06;0.15;;;0.15;;
31378;SDS011;61664;48.112;11.662;2023-04-24T07:34:34;0.20;;;0.20;;
31378;SDS011;61664;48.112;11.662;2023-04-24T07:37:01;0.25;;;0.25;;
31378;SDS011;61664;48.112;11.662;2023-04-24T07:39:28;0.15;;;0.15;;
31378;SDS011;61664;48.112;11.662;2023-04-24T07:41:55;0.30;;;0.30;;
31378;SDS011;61664;48.112;11.662;2023-04-24T07:44:22;0.50;;;0.50;;
31378;SDS011;61664;48.112;11.662;2023-04-24T07:46:49;0.20;;;0.20;;
31378;SDS011;61664;48.112;11.662;2023-04-24T07:49:16;0.20;;;0.20;;
31378;SDS011;61664;48.112;11.662;2023-04-24T07:51:45;0.47;;;0.20;;
31378;SDS011;61664;48.112;11.662;2023-04-24T07:54:12;0.20;;;0.20;;
31378;SDS011;61664;48.112;11.662;2023-04-24T07:56:39;0.20;;;0.20;;
31378;SDS011;61664;48.112;11.662;2023-04-24T07:59:09;0.90;;;0.28;;
31378;SDS011;61664;48.112;11.662;2023-04-24T08:01:37;0.10;;;0.10;;
31378;SDS011;61664;48.112;11.662;2023-04-24T08:04:04;0.10;;;0.10;;
31378;SDS011;61664;48.112;11.662;2023-04-24T08:06:32;0.20;;;0.20;;
31378;SDS011;61664;48.112;11.662;2023-04-24T08:08:59;0.10;;;0.10;;
31378;SDS011;61664;48.112;11.662;2023-04-24T08:11:26;0.30;;;0.30;;
31378;SDS011;61664;48.112;11.662;2023-04-24T08:13:53;0.43;;;0.43;;
31378;SDS011;61664;48.112;11.662;2023-04-24T08:16:21;1.77;;;1.45;;
31378;SDS011;61664;48.112;11.662;2023-04-24T08:18:50;3.70;;;1.27;;
31378;SDS011;61664;48.112;11.662;2023-04-24T08:21:17;0.57;;;0.50;;
31378;SDS011;61664;48.112;11.662;2023-04-24T08:23:45;1.10;;;0.60;;
31378;SDS011;61664;48.112;11.662;2023-04-24T08:26:12;0.13;;;0.10;;
31378;SDS011;61664;48.112;11.662;2023-04-24T08:28:39;0.13;;;0.13;;
31378;SDS011;61664;48.112;11.662;2023-04-24T08:31:06;0.10;;;0.10;;
31378;SDS011;61664;48.112;11.662;2023-04-24T08:33:33;0.30;;;0.30;;
31378;SDS011;61664;48.112;11.662;2023-04-24T08:36:04;0.20;;;0.20;;
31378;SDS011;61664;48.112;11.662;2023-04-24T08:38:32;0.30;;;0.20;;
31378;SDS011;61664;48.112;11.662;2023-04-24T08:41:00;0.28;;;0.10;;
31378;SDS011;61664;48.112;11.662;2023-04-24T08:43:28;0.20;;;0.20;;
31378;SDS011;61664;48.112;11.662;2023-04-24T08:45:55;0.20;;;0.15;;
31378;SDS011;61664;48.112;11.662;2023-04-24T08:48:23;1.65;;;0.15;;
31378;SDS011;61664;48.112;11.662;2023-04-24T08:50:57;0.20;;;0.20;;
31378;SDS011;61664;48.112;11.662;2023-04-24T08:53:25;1.77;;;1.67;;
31378;SDS011;61664;48.112;11.662;2023-04-24T08:55:54;1.65;;;1.55;;
31378;SDS011;61664;48.112;11.662;2023-04-24T08:58:24;1.10;;;1.00;;
31378;SDS011;61664;48.112;11.662;2023-04-24T09:00:55;0.70;;;0.57;;
31378;SDS011;61664;48.112;11.662;2023-04-24T09:03:24;0.60;;;0.60;;
31378;SDS011;61664;48.112;11.662;2023-04-24T09:05:53;2.87;;;0.90;;
31378;SDS011;61664;48.112;11.662;2023-04-24T09:08:24;0.50;;;0.50;;
31378;SDS011;61664;48.112;11.662;2023-04-24T09:10:52;0.70;;;0.70;;
31378;SDS011;61664;48.112;11.662;2023-04-24T09:13:19;0.63;;;0.50;;
31378;SDS011;61664;48.112;11.662;2023-04-24T09:15:47;0.50;;;0.50;;
31378;SDS011;61664;48.112;11.662;2023-04-24T09:18:14;0.65;;;0.60;;
31378;SDS011;61664;48.112;11.662;2023-04-24T09:21:00;3.08;;;0.70;;
31378;SDS011;61664;48.112;11.662;2023-04-24T09:23:30;0.80;;;0.80;;
31378;SDS011;61664;48.112;11.662;2023-04-24T09:25:59;1.27;;;1.17;;
31378;SDS011;61664;48.112;11.662;2023-04-24T09:28:31;3.40;;;2.10;;
31378;SDS011;61664;48.112;11.662;2023-04-24T09:31:05;1.05;;;0.95;;
31378;SDS011;61664;48.112;11.662;2023-04-24T09:34:00;1.25;;;1.20;;
31378;SDS011;61664;48.112;11.662;2023-04-24T09:36:37;0.70;;;0.70;;
31378;SDS011;61664;48.112;11.662;2023-04-24T09:39:09;1.70;;;1.60;;
31378;SDS011;61664;48.112;11.662;2023-04-24T09:41:52;1.15;;;1.05;;
31378;SDS011;61664;48.112;11.662;2023-04-24T09:44:26;0.50;;;0.47;;
31378;SDS011;61664;48.112;11.662;2023-04-24T09:46:55;1.55;;;0.80;;
31378;SDS011;61664;48.112;11.662;2023-04-24T09:54:32;2.10;;;1.90;;
31378;SDS011;61664;48.112;11.662;2023-04-24T09:56:59;1.70;;;1.60;;
31378;SDS011;61664;48.112;11.662;2023-04-24T09:59:27;0.70;;;0.70;;
31378;SDS011;61664;48.112;11.662;2023-04-24T10:01:55;0.88;;;0.73;;
31378;SDS011;61664;48.112;11.662;2023-04-24T10:04:24;0.73;;;0.63;;
31378;SDS011;61664;48.112;11.662;2023-04-24T10:06:54;0.87;;;0.77;;
31378;SDS011;61664;48.112;11.662;2023-04-24T10:09:24;2.00;;;1.90;;
31378;SDS011;61664;48.112;11.662;2023-04-24T10:11:53;3.17;;;2.97;;
31378;SDS011;61664;48.112;11.662;2023-04-24T10:14:21;1.90;;;1.70;;
31378;SDS011;61664;48.112;11.662;2023-04-24T10:16:52;2.55;;;2.35;;
31378;SDS011;61664;48.112;11.662;2023-04-24T10:19:22;2.05;;;1.73;;
31378;SDS011;61664;48.112;11.662;2023-04-24T10:21:52;1.30;;;1.20;;
31378;SDS011;61664;48.112;11.662;2023-04-24T10:24:22;1.20;;;1.10;;
31378;SDS011;61664;48.112;11.662;2023-04-24T10:26:49;2.20;;;2.10;;
31378;SDS011;61664;48.112;11.662;2023-04-24T10:29:17;1.23;;;0.75;;
31378;SDS011;61664;48.112;11.662;2023-04-24T10:31:45;0.80;;;0.77;;
31378;SDS011;61664;48.112;11.662;2023-04-24T10:34:14;0.60;;;0.60;;
31378;SDS011;61664;48.112;11.662;2023-04-24T10:36:48;0.75;;;0.73;;
31378;SDS011;61664;48.112;11.662;2023-04-24T10:39:22;0.55;;;0.55;;
31378;SDS011;61664;48.112;11.662;2023-04-24T10:41:54;0.60;;;0.60;;
31378;SDS011;61664;48.112;11.662;2023-04-24T10:44:24;1.67;;;0.70;;
31378;SDS011;61664;48.112;11.662;2023-04-24T10:46:54;0.80;;;0.57;;
31378;SDS011;61664;48.112;11.662;2023-04-24T10:49:28;0.52;;;0.52;;
31378;SDS011;61664;48.112;11.662;2023-04-24T10:52:00;1.10;;;0.60;;
31378;SDS011;61664;48.112;11.662;2023-04-24T10:54:44;0.55;;;0.50;;
31378;SDS011;61664;48.112;11.662;2023-04-24T10:59:49;0.75;;;0.70;;
31378;SDS011;61664;48.112;11.662;2023-04-24T11:02:36;0.85;;;0.50;;
31378;SDS011;61664;48.112;11.662;2023-04-24T11:10:43;0.52;;;0.40;;
31378;SDS011;61664;48.112;11.662;2023-04-24T11:13:15;3.00;;;1.38;;
31378;SDS011;61664;48.112;11.662;2023-04-24T11:15:43;3.38;;;1.70;;
31378;SDS011;61664;48.112;11.662;2023-04-24T11:18:16;1.10;;;1.00;;
31378;SDS011;61664;48.112;11.662;2023-04-24T11:20:43;1.17;;;0.93;;
31378;SDS011;61664;48.112;11.662;2023-04-24T11:23:12;1.33;;;0.80;;
31378;SDS011;61664;48.112;11.662;2023-04-24T11:25:40;0.93;;;0.77;;
31378;SDS011;61664;48.112;11.662;2023-04-24T11:28:08;0.60;;;0.50;;
31378;SDS011;61664;48.112;11.662;2023-04-24T11:30:42;0.43;;;0.43;;
31378;SDS011;61664;48.112;11.662;2023-04-24T11:33:09;0.70;;;0.70;;
31378;SDS011;61664;48.112;11.662;2023-04-24T11:35:39;1.45;;;0.80;;
31378;SDS011;61664;48.112;11.662;2023-04-24T11:38:06;1.40;;;0.60;;
31378;SDS011;61664;48.112;11.662;2023-04-24T11:40:37;1.10;;;0.88;;
31378;SDS011;61664;48.112;11.662;2023-04-24T11:43:05;0.60;;;0.60;;
31378;SDS011;61664;48.112;11.662;2023-04-24T11:45:33;1.05;;;0.95;;
31378;SDS011;61664;48.112;11.662;2023-04-24T11:48:02;0.93;;;0.93;;
31378;SDS011;61664;48.112;11.662;2023-04-24T11:50:30;0.80;;;0.75;;
31378;SDS011;61664;48.112;11.662;2023-04-24T11:52:57;1.88;;;0.95;;
31378;SDS011;61664;48.112;11.662;2023-04-24T11:55:25;0.80;;;0.80;;
31378;SDS011;61664;48.112;11.662;2023-04-24T11:57:56;0.77;;;0.77;;
31378;SDS011;61664;48.112;11.662;2023-04-24T12:00:25;3.07;;;0.83;;
31378;SDS011;61664;48.112;11.662;2023-04-24T12:03:07;0.60;;;0.60;;
31378;SDS011;61664;48.112;11.662;2023-04-24T12:05:38;0.65;;;0.55;;
31378;SDS011;61664;48.112;11.662;2023-04-24T12:08:06;0.50;;;0.50;;
31378;SDS011;61664;48.112;11.662;2023-04-24T12:10:33;0.82;;;0.70;;
31378;SDS011;61664;48.112;11.662;2023-04-24T12:13:02;0.60;;;0.60;;
31378;SDS011;61664;48.112;11.662;2023-04-24T12:15:29;0.52;;;0.52;;
31378;SDS011;61664;48.112;11.662;2023-04-24T12:17:56;0.38;;;0.38;;
31378;SDS011;61664;48.112;11.662;2023-04-24T12:20:27;0.70;;;0.70;;
31378;SDS011;61664;48.112;11.662;2023-04-24T12:22:57;0.65;;;0.65;;
31378;SDS011;61664;48.112;11.662;2023-04-24T12:25:28;0.60;;;0.60;;
31378;SDS011;61664;48.112;11.662;2023-04-24T12:30:31;0.75;;;0.60;;
31378;SDS011;61664;48.112;11.662;2023-04-24T12:33:02;2.72;;;0.50;;
31378;SDS011;61664;48.112;11.662;2023-04-24T12:35:30;0.50;;;0.50;;
31378;SDS011;61664;48.112;11.662;2023-04-24T12:38:06;1.23;;;0.52;;
31378;SDS011;61664;48.112;11.662;2023-04-24T12:40:34;0.60;;;0.60;;
31378;SDS011;61664;48.112;11.662;2023-04-24T12:43:02;0.68;;;0.68;;
31378;SDS011;61664;48.112;11.662;2023-04-24T12:45:41;0.40;;;0.40;;
31378;SDS011;61664;48.112;11.662;2023-04-24T12:48:08;0.43;;;0.43;;
31378;SDS011;61664;48.112;11.662;2023-04-24T12:50:35;0.60;;;0.60;;
31378;SDS011;61664;48.112;11.662;2023-04-24T12:53:03;1.00;;;0.60;;
31378;SDS011;61664;48.112;11.662;2023-04-24T12:55:30;0.60;;;0.60;;
31378;SDS011;61664;48.112;11.662;2023-04-24T12:57:57;0.60;;;0.60;;
31378;SDS011;61664;48.112;11.662;2023-04-24T13:00:24;0.60;;;0.60;;
31378;SDS011;61664;48.112;11.662;2023-04-24T13:02:51;0.70;;;0.70;;
31378;SDS011;61664;48.112;11.662;2023-04-24T13:05:18;0.63;;;0.57;;
31378;SDS011;61664;48.112;11.662;2023-04-24T13:07:45;0.60;;;0.60;;
31378;SDS011;61664;48.112;11.662;2023-04-24T13:10:12;0.60;;;0.60;;
31378;SDS011;61664;48.112;11.662;2023-04-24T13:12:39;0.70;;;0.55;;
31378;SDS011;61664;48.112;11.662;2023-04-24T13:15:07;1.80;;;0.70;;
31378;SDS011;61664;48.112;11.662;2023-04-24T13:17:34;0.77;;;0.77;;
31378;SDS011;61664;48.112;11.662;2023-04-24T13:20:01;1.45;;;1.25;;
31378;SDS011;61664;48.112;11.662;2023-04-24T13:22:28;1.50;;;0.68;;
31378;SDS011;61664;48.112;11.662;2023-04-24T13:24:55;0.68;;;0.68;;
31378;SDS011;61664;48.112;11.662;2023-04-24T13:27:23;0.93;;;0.60;;
31378;SDS011;61664;48.112;11.662;2023-04-24T13:29:50;0.75;;;0.68;;
31378;SDS011;61664;48.112;11.662;2023-04-24T13:32:17;0.65;;;0.65;;
31378;SDS011;61664;48.112;11.662;2023-04-24T13:34:44;0.68;;;0.68;;
31378;SDS011;61664;48.112;11.662;2023-04-24T13:37:12;0.70;;;0.70;;
31378;SDS011;61664;48.112;11.662;2023-04-24T13:39:39;0.80;;;0.80;;
31378;SDS011;61664;48.112;11.662;2023-04-24T13:42:07;0.75;;;0.60;;
31378;SDS011;61664;48.112;11.662;2023-04-24T13:44:35;0.60;;;0.60;;
31378;SDS011;61664;48.112;11.662;2023-04-24T13:47:01;1.08;;;0.95;;
31378;SDS011;61664;48.112;11.662;2023-04-24T13:49:28;0.90;;;0.90;;
31378;SDS011;61664;48.112;11.662;2023-04-24T13:51:55;0.82;;;0.63;;
31378;SDS011;61664;48.112;11.662;2023-04-24T13:54:23;0.60;;;0.60;;
31378;SDS011;61664;48.112;11.662;2023-04-24T13:56:52;1.17;;;0.68;;
31378;SDS011;61664;48.112;11.662;2023-04-24T13:59:19;1.08;;;0.77;;
31378;SDS011;61664;48.112;11.662;2023-04-24T14:01:47;1.20;;;1.10;;
31378;SDS011;61664;48.112;11.662;2023-04-24T14:04:14;1.33;;;0.63;;
31378;SDS011;61664;48.112;11.662;2023-04-24T14:06:43;1.30;;;0.60;;
31378;SDS011;61664;48.112;11.662;2023-04-24T14:09:10;0.93;;;0.80;;
31378;SDS011;61664;48.112;11.662;2023-04-24T14:11:37;1.15;;;0.95;;
31378;SDS011;61664;48.112;11.662;2023-04-24T14:14:04;0.60;;;0.60;;
31378;SDS011;61664;48.112;11.662;2023-04-24T14:16:32;1.70;;;0.70;;
31378;SDS011;61664;48.112;11.662;2023-04-24T14:18:58;1.00;;;0.90;;
31378;SDS011;61664;48.112;11.662;2023-04-24T14:21:25;0.60;;;0.50;;
31378;SDS011;61664;48.112;11.662;2023-04-24T14:23:52;1.80;;;0.68;;
31378;SDS011;61664;48.112;11.662;2023-04-24T14:26:19;0.80;;;0.68;;
31378;SDS011;61664;48.112;11.662;2023-04-24T14:28:46;0.60;;;0.60;;
31378;SDS011;61664;48.112;11.662;2023-04-24T14:31:13;1.08;;;0.82;;
31378;SDS011;61664;48.112;11.662;2023-04-24T14:33:40;0.70;;;0.70;;
31378;SDS011;61664;48.112;11.662;2023-04-24T14:36:07;1.20;;;0.82;;
31378;SDS011;61664;48.112;11.662;2023-04-24T14:38:34;0.70;;;0.70;;
31378;SDS011;61664;48.112;11.662;2023-04-24T14:41:01;1.05;;;1.05;;
31378;SDS011;61664;48.112;11.662;2023-04-24T14:43:38;0.63;;;0.63;;
31378;SDS011;61664;48.112;11.662;2023-04-24T14:46:05;0.98;;;0.70;;
31378;SDS011;61664;48.112;11.662;2023-04-24T14:48:31;1.35;;;0.85;;
31378;SDS011;61664;48.112;11.662;2023-04-24T14:50:58;1.00;;;0.63;;
31378;SDS011;61664;48.112;11.662;2023-04-24T14:53:25;1.80;;;1.00;;
31378;SDS011;61664;48.112;11.662;2023-04-24T14:55:53;0.93;;;0.93;;